Time;durP1;ratioP1;P1;durP2;ratioP2;P2;SDS_P1;SDS_P2;PMS_P1;PMS_P2;Temp;Humidity;BMP_temperature;BMP_pressure;BME280_temperature;BME280_humidity;BME280_pressure;Samples;Min_cycle;Max_cycle;Signal;HPM_P1;HPM_P2
2020/12/25 00:00:35;;;;;;;3.53;2.20;;;;;;;1.85;100.00;98816.27;1725255;83;21126;-75
2020/12/25 00:03:02;;;;;;;3.40;2.17;;;;;;;1.81;100.00;98797.57;1722996;82;21146;-74
2020/12/25 00:05:31;;;;;;;4.57;2.70;;;;;;;1.82;100.00;98796.71;1729375;82;21130;-75
2020/12/25 00:07:59;;;;;;;4.17;2.10;;;;;;;1.83;100.00;98788.63;1730846;82;21186;-74
2020/12/25 00:10:26;;;;;;;3.27;2.00;;;;;;;1.81;100.00;98783.55;1730450;81;21130;-74
2020/12/25 00:12:54;;;;;;;2.43;1.93;;;;;;;1.80;100.00;98781.86;1723207;82;21142;-74
2020/12/25 00:15:22;;;;;;;2.50;1.67;;;;;;;1.82;100.00;98768.66;1725486;82;21522;-75
2020/12/25 00:17:50;;;;;;;1.80;1.57;;;;;;;1.84;100.00;98771.23;1721988;83;21119;-74
2020/12/25 00:20:18;;;;;;;2.40;1.60;;;;;;;1.83;100.00;98764.41;1767913;79;21122;-76
2020/12/25 00:22:46;;;;;;;2.60;1.60;;;;;;;1.84;100.00;98771.23;1760797;80;21114;-74
2020/12/25 00:25:14;;;;;;;2.03;1.40;;;;;;;1.86;100.00;98769.11;1768640;80;21114;-74
2020/12/25 00:27:42;;;;;;;2.47;1.80;;;;;;;1.87;100.00;98791.20;1769141;80;21126;-75
2020/12/25 00:30:10;;;;;;;2.10;1.50;;;;;;;1.90;100.00;98785.26;1737454;82;21232;-75
2020/12/25 00:32:38;;;;;;;2.73;1.73;;;;;;;1.93;100.00;98787.81;1778914;79;21292;-75
2020/12/25 00:35:06;;;;;;;2.53;1.80;;;;;;;1.93;100.00;98794.19;1775849;79;21236;-75
2020/12/25 00:37:33;;;;;;;2.77;1.87;;;;;;;1.95;100.00;98804.37;1778208;80;21135;-76
2020/12/25 00:40:01;;;;;;;4.00;1.97;;;;;;;1.96;100.00;98800.56;1765556;80;21681;-74
2020/12/25 00:42:29;;;;;;;2.17;1.50;;;;;;;1.95;100.00;98789.07;1765465;80;21138;-75
2020/12/25 00:44:57;;;;;;;5.90;2.07;;;;;;;1.97;100.00;98801.41;1773367;79;21256;-74
2020/12/25 00:47:24;;;;;;;2.77;1.90;;;;;;;1.96;100.00;98794.19;1774139;80;21124;-75
2020/12/25 00:49:52;;;;;;;4.03;1.83;;;;;;;1.97;100.00;98787.38;1713453;83;21105;-74
2020/12/25 00:52:19;;;;;;;2.97;1.90;;;;;;;1.97;100.00;98792.05;1755117;81;21700;-76
2020/12/25 00:54:47;;;;;;;3.87;1.87;;;;;;;1.98;100.00;98791.19;1752500;79;21138;-71
2020/12/25 00:57:17;;;;;;;2.33;1.60;;;;;;;1.99;100.00;98782.68;1718759;80;21506;-74
2020/12/25 00:59:55;;;;;;;2.40;1.50;;;;;;;2.01;100.00;98771.22;1698231;79;21167;-73
2020/12/25 01:02:23;;;;;;;2.63;1.50;;;;;;;2.01;100.00;98771.22;1741481;81;21110;-75
2020/12/25 01:04:51;;;;;;;3.00;1.67;;;;;;;2.03;100.00;98774.20;1732604;81;21207;-73
2020/12/25 01:07:18;;;;;;;1.93;1.50;;;;;;;2.03;100.00;98759.33;1729982;82;21106;-74
2020/12/25 01:09:45;;;;;;;3.53;1.80;;;;;;;2.05;100.00;98762.70;1722055;81;21146;-75
2020/12/25 01:12:13;;;;;;;2.63;1.70;;;;;;;2.04;100.00;98753.36;1722534;81;21185;-75
2020/12/25 01:14:41;;;;;;;3.33;1.77;;;;;;;2.06;100.00;98751.23;1741249;81;21178;-74
2020/12/25 01:17:09;;;;;;;2.40;1.60;;;;;;;2.07;100.00;98750.81;1725128;81;21125;-74
2020/12/25 01:19:36;;;;;;;1.87;1.47;;;;;;;2.06;100.00;98728.28;1739849;81;21561;-74
2020/12/25 01:22:04;;;;;;;1.90;1.30;;;;;;;2.09;100.00;98741.43;1724184;81;21111;-74
2020/12/25 01:24:31;;;;;;;3.50;1.70;;;;;;;2.10;100.00;98743.16;1734324;82;21142;-73
2020/12/25 01:26:59;;;;;;;3.80;1.87;;;;;;;2.11;100.00;98731.66;1730952;81;21601;-74
2020/12/25 01:29:26;;;;;;;2.70;1.57;;;;;;;2.14;100.00;98732.08;1730271;81;21537;-73
2020/12/25 01:31:55;;;;;;;2.30;1.77;;;;;;;2.17;100.00;98736.34;1731948;81;21169;-74
2020/12/25 01:34:24;;;;;;;1.95;1.35;;;;;;;2.15;100.00;98732.93;1728910;81;21287;-74
2020/12/25 01:36:52;;;;;;;2.43;1.73;;;;;;;2.15;100.00;98726.12;1740631;81;21097;-74
2020/12/25 01:39:20;;;;;;;3.43;2.77;;;;;;;2.16;100.00;98722.73;1736297;81;21086;-73
2020/12/25 01:41:48;;;;;;;3.20;2.00;;;;;;;2.18;100.00;98729.09;1701547;82;21153;-73
2020/12/25 01:44:16;;;;;;;3.43;2.23;;;;;;;2.20;100.00;98730.80;1717083;81;21121;-74
2020/12/25 01:46:43;;;;;;;3.50;2.27;;;;;;;2.21;100.00;98722.28;1724519;81;21211;-75
2020/12/25 01:49:11;;;;;;;3.27;2.20;;;;;;;2.22;100.00;98732.05;1726348;80;21165;-74
2020/12/25 01:51:39;;;;;;;4.43;2.20;;;;;;;2.23;100.00;98732.07;1732548;81;21145;-74
2020/12/25 01:54:07;;;;;;;3.90;2.57;;;;;;;2.26;100.00;98735.89;1737408;81;21652;-73
2020/12/25 01:56:34;;;;;;;3.47;2.23;;;;;;;2.26;100.00;98726.11;1729218;81;21581;-74
2020/12/25 01:59:02;;;;;;;3.33;2.33;;;;;;;2.26;100.00;98733.34;1729524;81;21096;-73
2020/12/25 02:01:30;;;;;;;4.33;2.73;;;;;;;2.30;100.00;98726.52;1704693;82;21121;-74
2020/12/25 02:03:57;;;;;;;4.87;3.00;;;;;;;2.31;100.00;98730.33;1735860;81;21122;-74
2020/12/25 02:06:26;;;;;;;4.30;2.90;;;;;;;2.35;100.00;98728.62;1736603;81;21094;-73
2020/12/25 02:08:53;;;;;;;4.73;3.23;;;;;;;2.38;100.00;98727.77;1704957;82;21311;-71
2020/12/25 02:11:21;;;;;;;4.87;3.30;;;;;;;2.40;100.00;98725.64;1708983;83;21148;-75
2020/12/25 02:13:49;;;;;;;4.93;3.53;;;;;;;2.44;100.00;98733.70;1745491;81;21319;-75
2020/12/25 02:16:17;;;;;;;4.67;3.23;;;;;;;2.46;100.00;98725.63;1716175;82;21275;-74
2020/12/25 02:18:44;;;;;;;5.50;3.80;;;;;;;2.45;100.00;98717.95;1725376;82;21557;-74
2020/12/25 02:21:12;;;;;;;5.73;4.27;;;;;;;2.48;100.00;98720.06;1714777;82;21510;-74
2020/12/25 02:23:40;;;;;;;5.83;3.60;;;;;;;2.51;100.00;98721.77;1729894;82;21098;-74
2020/12/25 02:26:08;;;;;;;6.73;4.30;;;;;;;2.51;100.00;98722.61;1729767;82;21142;-74
2020/12/25 02:28:35;;;;;;;6.53;4.63;;;;;;;2.53;100.00;98720.91;1729997;82;21553;-74
2020/12/25 02:31:06;;;;;;;5.33;3.80;;;;;;;2.55;100.00;98717.94;1729760;82;21526;-74
2020/12/25 02:33:34;;;;;;;6.37;5.03;;;;;;;2.60;100.00;98727.27;1728638;81;21173;-74
2020/12/25 02:36:01;;;;;;;9.00;5.53;;;;;;;2.60;100.00;98706.42;1728944;83;21530;-73
2020/12/25 02:38:29;;;;;;;9.13;5.00;;;;;;;2.61;100.00;98706.83;1729334;81;21105;-73
2020/12/25 02:40:56;;;;;;;7.57;4.83;;;;;;;2.63;100.00;98712.79;1729700;82;21114;-74
2020/12/25 02:43:24;;;;;;;7.37;5.47;;;;;;;2.64;100.00;98704.27;1748782;81;21574;-74
2020/12/25 02:45:51;;;;;;;8.80;5.20;;;;;;;2.66;100.00;98707.67;1742837;81;21561;-73
2020/12/25 02:48:19;;;;;;;11.73;4.73;;;;;;;2.67;100.00;98702.12;1745864;81;21546;-73
2020/12/25 02:50:46;;;;;;;7.87;5.33;;;;;;;2.69;100.00;98709.37;1718753;82;21129;-74
2020/12/25 02:53:14;;;;;;;8.77;4.80;;;;;;;2.72;100.00;98709.36;1745681;80;21110;-73
2020/12/25 02:55:41;;;;;;;8.87;5.80;;;;;;;2.72;100.00;98704.25;1739270;82;21169;-74
2020/12/25 02:58:09;;;;;;;10.13;6.30;;;;;;;2.77;100.00;98699.95;1719166;81;21147;-73
2020/12/25 03:00:37;;;;;;;9.90;6.40;;;;;;;2.80;100.00;98706.32;1713117;81;21109;-73
2020/12/25 03:03:05;;;;;;;10.80;6.00;;;;;;;2.82;100.00;98709.73;1709274;81;21133;-74
2020/12/25 03:05:34;;;;;;;9.27;6.07;;;;;;;2.87;100.00;98709.69;1712001;83;21114;-73
2020/12/25 03:08:01;;;;;;;10.63;5.77;;;;;;;2.88;100.00;98699.89;1729502;81;21146;-73
2020/12/25 03:10:30;;;;;;;8.33;5.60;;;;;;;2.88;100.00;98698.61;1750017;81;21109;-74
2020/12/25 03:12:57;;;;;;;13.83;6.67;;;;;;;2.90;100.00;98700.73;1741312;81;21130;-74
2020/12/25 03:15:25;;;;;;;12.73;7.13;;;;;;;2.92;100.00;98696.48;1709155;81;21150;-75
2020/12/25 03:17:52;;;;;;;10.03;6.50;;;;;;;2.93;100.00;98709.23;1717707;81;21556;-73
2020/12/25 03:20:20;;;;;;;12.40;7.27;;;;;;;2.94;100.00;98713.91;1721595;81;21138;-74
2020/12/25 03:22:47;;;;;;;11.07;7.03;;;;;;;2.94;100.00;98719.89;1729379;81;21126;-74
2020/12/25 03:25:15;;;;;;;13.80;7.03;;;;;;;2.98;100.00;98722.00;1729085;82;21126;-74
2020/12/25 03:27:43;;;;;;;12.87;8.73;;;;;;;3.00;100.00;98717.27;1733309;81;21532;-74
2020/12/25 03:30:11;;;;;;;12.73;7.87;;;;;;;3.00;100.00;98727.92;1729034;81;21133;-74
2020/12/25 03:32:38;;;;;;;13.47;8.00;;;;;;;3.01;100.00;98718.99;1729708;81;21517;-74
2020/12/25 03:35:06;;;;;;;13.53;7.87;;;;;;;3.03;100.00;98723.64;1729987;82;21489;-74
2020/12/25 03:37:33;;;;;;;16.07;9.80;;;;;;;3.07;100.00;98727.03;1729947;81;21144;-74
2020/12/25 03:40:03;;;;;;;13.67;8.93;;;;;;;3.10;100.00;98737.23;1730241;81;21088;-74
2020/12/25 03:42:30;;;;;;;18.53;9.03;;;;;;;3.11;100.00;98736.39;1730447;82;21120;-73
2020/12/25 03:44:58;;;;;;;19.23;10.27;;;;;;;3.12;100.00;98727.02;1716300;82;21138;-74
2020/12/25 03:47:25;;;;;;;16.70;10.27;;;;;;;3.15;100.00;98736.79;1701470;83;21539;-74
2020/12/25 03:49:53;;;;;;;17.67;10.07;;;;;;;3.19;100.00;98736.34;1719567;82;21137;-73
2020/12/25 03:52:21;;;;;;;19.73;11.47;;;;;;;3.22;100.00;98734.61;1719294;82;21510;-73
2020/12/25 03:54:50;;;;;;;18.93;10.07;;;;;;;3.27;100.00;98742.27;1722403;82;21108;-74
2020/12/25 03:57:18;;;;;;;20.07;11.53;;;;;;;3.28;100.00;98734.58;1728957;82;21157;-73
2020/12/25 03:59:46;;;;;;;17.73;9.77;;;;;;;3.32;100.00;98723.90;1717576;82;21240;-73
2020/12/25 04:02:13;;;;;;;18.13;10.80;;;;;;;3.35;100.00;98722.60;1716773;82;21333;-73
2020/12/25 04:04:41;;;;;;;19.30;10.90;;;;;;;3.37;100.00;98722.58;1729255;81;21150;-73
2020/12/25 04:07:10;;;;;;;21.97;12.23;;;;;;;3.38;100.00;98714.07;1726377;82;21160;-73
2020/12/25 04:09:39;;;;;;;23.40;13.23;;;;;;;3.40;100.00;98710.65;1729242;81;21057;-73
2020/12/25 04:12:06;;;;;;;20.67;11.93;;;;;;;3.43;100.00;98718.70;1730547;81;21240;-73
2020/12/25 04:14:34;;;;;;;20.67;12.47;;;;;;;3.41;100.00;98730.23;1729863;81;21171;-74
2020/12/25 04:17:01;;;;;;;20.40;12.40;;;;;;;3.40;100.00;98724.71;1728775;81;21141;-74
2020/12/25 04:19:29;;;;;;;19.07;11.97;;;;;;;3.39;100.00;98724.27;1696317;83;21105;-72
2020/12/25 04:21:57;;;;;;;17.97;11.77;;;;;;;3.41;100.00;98716.17;1699514;81;21142;-74
2020/12/25 04:24:24;;;;;;;22.20;13.20;;;;;;;3.44;100.00;98730.64;1715714;82;21677;-73
2020/12/25 04:26:52;;;;;;;22.67;13.53;;;;;;;3.44;100.00;98730.64;1701207;82;21125;-73
2020/12/25 04:29:19;;;;;;;21.43;13.30;;;;;;;3.44;100.00;98731.92;1715821;82;21181;-73
2020/12/25 04:31:47;;;;;;;19.60;12.47;;;;;;;3.45;100.00;98725.94;1743589;81;21530;-73
2020/12/25 04:34:14;;;;;;;16.23;11.70;;;;;;;3.47;100.00;98723.80;1708319;83;21187;-73
2020/12/25 04:36:42;;;;;;;18.97;12.90;;;;;;;3.50;100.00;98707.59;1730444;82;21530;-74
2020/12/25 04:39:10;;;;;;;20.37;13.47;;;;;;;3.51;100.00;98712.68;1735514;81;21153;-72
2020/12/25 04:41:38;;;;;;;19.83;13.07;;;;;;;3.52;100.00;98722.04;1738947;81;21189;-74
2020/12/25 04:44:06;;;;;;;19.50;12.40;;;;;;;3.52;100.00;98713.52;1736498;82;21099;-73
2020/12/25 04:46:34;;;;;;;19.67;12.73;;;;;;;3.55;100.00;98730.13;1716625;81;21158;-74
2020/12/25 04:49:02;;;;;;;23.27;12.70;;;;;;;3.58;100.00;98721.59;1739975;82;21526;-74
2020/12/25 04:51:30;;;;;;;20.70;13.43;;;;;;;3.59;100.00;98713.89;1738927;81;21146;-72
2020/12/25 04:53:57;;;;;;;25.13;15.67;;;;;;;3.59;100.00;98712.61;1703164;81;21150;-74
2020/12/25 04:56:25;;;;;;;23.33;14.60;;;;;;;3.61;100.00;98719.01;1721039;81;21118;-74
2020/12/25 04:58:53;;;;;;;26.03;16.20;;;;;;;3.61;100.00;98727.95;1731348;81;21584;-74
2020/12/25 05:01:21;;;;;;;24.80;15.40;;;;;;;3.60;100.00;98737.34;1729941;81;21136;-74
2020/12/25 05:03:49;;;;;;;23.00;14.17;;;;;;;3.63;100.00;98748.83;1744068;81;21090;-74
2020/12/25 05:06:18;;;;;;;21.07;13.77;;;;;;;3.64;100.00;98749.23;1730001;81;21157;-74
2020/12/25 05:08:49;;;;;;;22.50;14.30;;;;;;;3.67;100.00;98745.81;1733705;81;21153;-74
2020/12/25 05:11:21;;;;;;;23.60;15.63;;;;;;;3.69;100.00;98746.20;1691316;83;21148;-73
2020/12/25 05:13:54;;;;;;;26.97;16.37;;;;;;;3.70;100.00;98741.52;1716446;82;21138;-74
2020/12/25 05:16:22;;;;;;;22.53;14.70;;;;;;;3.70;100.00;98753.03;1721628;82;21165;-74
2020/12/25 05:18:51;;;;;;;22.63;14.13;;;;;;;3.70;100.00;98756.02;1732711;80;21126;-73
2020/12/25 05:21:21;;;;;;;24.80;14.80;;;;;;;3.69;100.00;98767.94;1752715;82;21162;-73
2020/12/25 05:23:49;;;;;;;28.17;18.27;;;;;;;3.72;100.00;98770.91;1732150;81;21133;-74
2020/12/25 05:26:18;;;;;;;28.67;16.80;;;;;;;3.73;100.00;98766.23;1734742;81;21560;-73
2020/12/25 05:28:48;;;;;;;27.53;17.13;;;;;;;3.71;100.00;98761.11;1748545;81;21315;-73
2020/12/25 05:31:17;;;;;;;25.52;16.80;;;;;;;3.72;100.00;98764.52;1734071;81;21117;-74
2020/12/25 05:33:47;;;;;;;24.23;16.17;;;;;;;3.73;100.00;98764.52;1729822;81;21299;-74
2020/12/25 05:36:15;;;;;;;25.72;16.73;;;;;;;3.76;100.00;98766.20;1710314;81;21550;-74
2020/12/25 05:39:10;;;;;;;27.27;16.03;;;;;;;3.79;100.00;98772.55;1747088;81;21121;-74
2020/12/25 05:41:38;;;;;;;28.47;18.40;;;;;;;3.79;100.00;98772.98;1706452;83;21163;-74
2020/12/25 05:44:06;;;;;;;29.30;18.90;;;;;;;3.79;100.00;98784.50;1673267;83;21282;-74
2020/12/25 05:46:34;;;;;;;27.40;17.60;;;;;;;3.81;100.00;98782.78;1725731;83;21143;-75
2020/12/25 05:49:02;;;;;;;33.50;19.70;;;;;;;3.82;100.00;98784.04;1715668;84;21152;-74
2020/12/25 05:51:30;;;;;;;26.53;18.03;;;;;;;3.86;100.00;98781.02;1713135;82;21143;-74
2020/12/25 05:53:57;;;;;;;28.53;18.80;;;;;;;3.86;100.00;98798.93;1703345;82;21147;-74
2020/12/25 05:56:25;;;;;;;29.97;18.80;;;;;;;3.86;100.00;98795.09;1701172;82;21148;-74
2020/12/25 05:58:52;;;;;;;28.30;17.60;;;;;;;3.86;100.00;98804.92;1674776;83;21132;-74
2020/12/25 06:01:20;;;;;;;32.53;17.87;;;;;;;3.89;100.00;98807.46;1715507;84;21163;-73
2020/12/25 06:03:48;;;;;;;27.43;18.10;;;;;;;3.91;100.00;98811.27;1715241;82;21139;-74
2020/12/25 06:06:16;;;;;;;29.07;20.83;;;;;;;3.95;100.00;98816.77;1696754;84;21139;-74
2020/12/25 06:08:58;;;;;;;36.20;19.97;;;;;;;3.95;100.00;98816.34;1714408;82;21286;-74
2020/12/25 06:11:30;;;;;;;30.00;18.73;;;;;;;3.98;100.00;98814.19;1715152;83;21148;-73
2020/12/25 06:13:59;;;;;;;33.83;19.37;;;;;;;3.97;100.00;98814.63;1686942;84;21115;-74
2020/12/25 06:16:27;;;;;;;28.40;19.20;;;;;;;3.98;100.00;98815.04;1705013;82;21552;-74
2020/12/25 06:19:11;;;;;;;29.97;18.83;;;;;;;4.02;100.00;98818.85;1695864;84;21124;-75
2020/12/25 06:21:55;;;;;;;32.67;20.70;;;;;;;4.01;100.00;98823.12;1715668;84;21171;-74
2020/12/25 06:24:31;;;;;;;28.93;17.77;;;;;;;4.00;100.00;98824.00;1715507;84;21127;-73
2020/12/25 06:27:02;;;;;;;27.93;18.00;;;;;;;4.05;100.00;98819.67;1716015;82;21127;-74
2020/12/25 06:29:29;;;;;;;31.02;18.85;;;;;;;4.08;100.00;98824.77;1692309;82;21148;-72
2020/12/25 06:31:59;;;;;;;25.87;16.53;;;;;;;4.09;100.00;98831.61;1687104;82;21181;-74
2020/12/25 06:34:47;;;;;;;33.30;23.13;;;;;;;4.13;100.00;98834.98;1670213;83;21171;-73
2020/12/25 06:37:15;;;;;;;29.83;17.37;;;;;;;4.17;100.00;98832.38;1715283;82;21164;-74
2020/12/25 06:39:50;;;;;;;31.67;20.00;;;;;;;4.22;100.00;98833.20;1715003;82;21139;-72
2020/12/25 06:42:55;;;;;;;28.60;19.60;;;;;;;4.25;100.00;98834.02;1715566;84;21140;-73
2020/12/25 06:45:31;;;;;;;27.40;19.60;;;;;;;4.28;100.00;98833.99;1721029;83;21260;-73
2020/12/25 06:48:14;;;;;;;30.77;21.60;;;;;;;4.30;100.00;98834.41;1710032;83;21118;-73
2020/12/25 06:50:47;;;;;;;33.40;21.37;;;;;;;4.34;100.00;98846.74;1717042;83;21100;-73
2020/12/25 06:53:36;;;;;;;29.73;20.77;;;;;;;4.38;100.00;98856.09;1723544;82;21337;-73
2020/12/25 06:56:17;;;;;;;32.63;21.67;;;;;;;4.41;100.00;98862.47;1719435;83;21170;-72
2020/12/25 06:58:47;;;;;;;31.37;20.17;;;;;;;4.45;100.00;98861.16;1722616;83;21170;-73
2020/12/25 07:01:17;;;;;;;30.97;20.02;;;;;;;4.46;100.00;98861.56;1697575;83;21145;-74
2020/12/25 07:03:45;;;;;;;32.90;21.05;;;;;;;4.49;100.00;98872.22;1702985;83;21105;-73
2020/12/25 07:06:14;;;;;;;29.70;18.33;;;;;;;4.50;100.00;98869.22;1707817;84;21216;-74
2020/12/25 07:08:50;;;;;;;26.63;17.67;;;;;;;4.54;100.00;98865.33;1703850;83;21142;-73
2020/12/25 07:11:18;;;;;;;31.00;20.10;;;;;;;4.59;100.00;98864.02;1696770;84;21131;-73
2020/12/25 07:13:46;;;;;;;26.70;18.47;;;;;;;4.63;100.00;98865.68;1708609;83;21578;-73
2020/12/25 07:16:15;;;;;;;31.77;20.80;;;;;;;4.68;100.00;98872.47;1708512;83;21083;-73
2020/12/25 07:18:42;;;;;;;27.90;19.30;;;;;;;4.75;100.00;98871.13;1706965;83;21153;-73
2020/12/25 07:21:10;;;;;;;27.60;19.17;;;;;;;4.81;100.00;98880.03;1710038;83;21119;-73
2020/12/25 07:23:44;;;;;;;28.43;20.27;;;;;;;4.85;100.00;98880.41;1710075;83;21110;-73
2020/12/25 07:26:14;;;;;;;31.67;22.37;;;;;;;4.90;100.00;98877.35;1707532;83;21134;-73
2020/12/25 07:28:42;;;;;;;33.03;22.87;;;;;;;4.92;100.00;98886.73;1718887;83;21151;-74
2020/12/25 07:31:10;;;;;;;35.43;25.63;;;;;;;4.92;100.00;98888.45;1715758;82;21559;-73
2020/12/25 07:33:38;;;;;;;35.80;23.97;;;;;;;4.91;100.00;98891.89;1705853;83;21131;-72
2020/12/25 07:36:11;;;;;;;32.77;22.57;;;;;;;4.93;100.00;98890.98;1694786;83;21226;-72
2020/12/25 07:38:39;;;;;;;31.90;22.87;;;;;;;4.98;100.00;98897.80;1718172;82;21127;-73
2020/12/25 07:41:07;;;;;;;31.00;20.47;;;;;;;4.96;100.00;98899.52;1709743;83;21126;-72
2020/12/25 07:43:36;;;;;;;35.30;24.87;;;;;;;4.93;100.00;98901.67;1716668;83;21180;-73
2020/12/25 07:46:06;;;;;;;32.50;23.10;;;;;;;4.93;100.00;98906.80;1696295;84;21562;-72
2020/12/25 07:48:33;;;;;;;33.67;22.50;;;;;;;4.95;100.00;98908.08;1689195;84;21154;-75
2020/12/25 07:51:02;;;;;;;33.27;22.23;;;;;;;4.94;100.00;98913.64;1612768;85;21124;-73
2020/12/25 07:53:32;;;;;;;31.77;22.33;;;;;;;4.94;100.00;98922.61;1660187;85;21184;-72
2020/12/25 07:56:04;;;;;;;32.03;21.80;;;;;;;4.96;100.00;98920.86;1637856;85;21170;-71
2020/12/25 07:58:32;;;;;;;30.30;20.33;;;;;;;4.97;100.00;98925.14;1657225;85;21142;-72
2020/12/25 08:01:00;;;;;;;29.10;20.07;;;;;;;5.00;100.00;98929.36;1659759;84;21131;-73
2020/12/25 08:03:31;;;;;;;24.43;18.52;;;;;;;5.04;100.00;98927.21;1682245;84;21175;-73
2020/12/25 08:06:01;;;;;;;25.17;16.40;;;;;;;5.06;100.00;98928.02;1673584;83;21122;-75
2020/12/25 08:08:31;;;;;;;28.40;20.87;;;;;;;5.09;100.00;98938.25;1669180;83;21312;-74
2020/12/25 08:11:01;;;;;;;25.00;18.00;;;;;;;5.10;100.00;98934.41;1669761;83;21280;-74
2020/12/25 08:13:44;;;;;;;22.80;17.03;;;;;;;5.15;100.00;98935.63;1680797;84;21147;-71
2020/12/25 08:16:13;;;;;;;27.10;18.53;;;;;;;5.18;100.00;98938.16;1664553;83;21158;-72
2020/12/25 08:18:42;;;;;;;23.13;17.93;;;;;;;5.20;100.00;98939.00;1684611;84;21139;-72
2020/12/25 08:21:12;;;;;;;;;;;;;;;5.22;100.00;98934.69;1668623;85;21135;-72
2020/12/25 08:23:40;;;;;;;24.63;17.33;;;;;;;5.25;100.00;98934.66;1673957;85;20137;-72
2020/12/25 08:26:09;;;;;;;26.27;18.73;;;;;;;5.28;100.00;98931.22;1656073;85;21139;-72
2020/12/25 08:28:37;;;;;;;23.33;17.77;;;;;;;5.30;100.00;98929.05;1687063;85;21272;-77
2020/12/25 08:31:17;;;;;;;27.00;19.17;;;;;;;5.38;100.00;98932.80;1687405;84;21107;-75
2020/12/25 08:33:55;;;;;;;26.90;17.20;;;;;;;5.40;100.00;98931.92;1723265;82;21133;-73
2020/12/25 08:36:24;;;;;;;22.73;16.50;;;;;;;5.44;100.00;98937.02;1731617;82;21149;-73
2020/12/25 08:38:56;;;;;;;26.07;18.60;;;;;;;5.44;100.00;98939.58;1688833;83;21551;-73
2020/12/25 08:41:27;;;;;;;30.60;21.07;;;;;;;5.40;100.00;98951.59;1735022;82;21117;-73
2020/12/25 08:43:57;;;;;;;29.43;20.37;;;;;;;5.39;100.00;98948.59;1738142;81;21132;-74
2020/12/25 08:46:25;;;;;;;29.40;18.10;;;;;;;5.36;100.00;98948.22;1722849;81;21105;-73
2020/12/25 08:48:53;;;;;;;23.67;16.37;;;;;;;5.31;100.00;98951.25;1739545;81;21090;-80
2020/12/25 08:51:21;;;;;;;25.37;17.17;;;;;;;5.32;100.00;98943.13;1744870;81;21268;-72
2020/12/25 08:53:54;;;;;;;22.53;16.73;;;;;;;5.34;100.00;98942.25;1756071;81;21143;-74
2020/12/25 08:56:25;;;;;;;24.70;17.60;;;;;;;5.40;100.00;98949.87;1735603;81;21114;-73
2020/12/25 08:59:01;;;;;;;21.60;15.00;;;;;;;5.49;100.00;98959.16;1743393;81;21125;-72
2020/12/25 09:01:39;;;;;;;21.50;14.13;;;;;;;5.49;100.00;98955.75;1736078;81;21557;-72
2020/12/25 09:04:12;;;;;;;18.53;12.43;;;;;;;5.48;100.00;98961.76;1739600;81;21149;-74
2020/12/25 09:06:40;;;;;;;21.23;13.67;;;;;;;5.45;100.00;98956.22;1736025;81;21153;-73
2020/12/25 09:09:09;;;;;;;17.73;13.07;;;;;;;5.43;100.00;98955.41;1729294;81;21255;-73
2020/12/25 09:11:37;;;;;;;20.40;14.93;;;;;;;5.38;100.00;98955.88;1735143;80;21129;-73
2020/12/25 09:14:05;;;;;;;15.50;11.33;;;;;;;5.38;100.00;98944.34;1743891;80;21137;-72
2020/12/25 09:16:32;;;;;;;21.07;13.83;;;;;;;5.38;100.00;98940.05;1739482;81;21478;-71
2020/12/25 09:19:00;;;;;;;20.90;11.83;;;;;;;5.45;100.00;98948.53;1740514;81;21578;-73
2020/12/25 09:21:28;;;;;;;18.60;13.27;;;;;;;5.54;100.00;98942.02;1734078;81;21161;-73
2020/12/25 09:23:58;;;;;;;17.97;11.27;;;;;;;5.69;100.00;98954.22;1736924;81;21173;-74
2020/12/25 09:26:26;;;;;;;14.68;11.38;;;;;;;5.80;100.00;98945.97;1735386;81;21140;-73
2020/12/25 09:28:54;;;;;;;18.37;12.70;;;;;;;6.00;100.00;98946.58;1735711;82;21128;-72
2020/12/25 09:31:23;;;;;;;17.77;12.17;;;;;;;6.17;100.00;98938.62;1750870;81;21135;-76
2020/12/25 09:33:51;;;;;;;20.17;12.87;;;;;;;6.59;100.00;98930.28;1722177;82;21112;-72
2020/12/25 09:36:19;;;;;;;17.17;11.33;;;;;;;7.09;100.00;98937.10;1745963;81;21255;-73
2020/12/25 09:38:46;;;;;;;16.93;11.57;;;;;;;7.38;97.06;98947.29;1733256;81;21105;-74
2020/12/25 09:41:14;;;;;;;14.10;10.40;;;;;;;7.35;94.88;98949.47;1735269;81;21546;-75
2020/12/25 09:44:01;;;;;;;16.07;11.20;;;;;;;7.11;95.42;98950.80;1742664;81;21616;-73
2020/12/25 09:46:28;;;;;;;17.07;12.10;;;;;;;6.78;95.85;98951.80;1738975;81;21544;-74
2020/12/25 09:48:56;;;;;;;16.30;11.17;;;;;;;6.58;97.25;98953.86;1729958;81;21145;-73
2020/12/25 09:51:24;;;;;;;13.30;10.40;;;;;;;6.45;97.82;98943.36;1739867;81;21118;-73
2020/12/25 09:53:54;;;;;;;18.67;11.50;;;;;;;6.40;97.96;98936.16;1743748;81;21195;-73
2020/12/25 09:56:23;;;;;;;14.73;10.60;;;;;;;6.47;98.28;98933.89;1736912;81;21150;-74
2020/12/25 09:58:53;;;;;;;13.75;10.28;;;;;;;6.60;97.44;98942.25;1743536;81;21116;-73
2020/12/25 10:01:22;;;;;;;15.87;11.37;;;;;;;7.00;95.68;98941.16;1729103;81;21173;-75
2020/12/25 10:03:50;;;;;;;16.17;11.80;;;;;;;7.25;93.73;98935.94;1745691;81;21129;-75
2020/12/25 10:06:20;;;;;;;11.97;9.03;;;;;;;7.48;92.44;98935.93;1731579;81;21145;-75
2020/12/25 10:08:47;;;;;;;13.93;9.27;;;;;;;7.86;90.21;98930.44;1731435;81;21586;-75
2020/12/25 10:11:19;;;;;;;12.73;9.00;;;;;;;8.00;88.85;98924.54;1734965;81;21326;-73
2020/12/25 10:13:53;;;;;;;12.70;9.20;;;;;;;7.90;86.65;98918.73;1746552;81;21102;-76
2020/12/25 10:16:20;;;;;;;12.87;8.93;;;;;;;7.77;87.12;98908.75;1736942;81;21565;-76
2020/12/25 10:18:48;;;;;;;12.40;9.53;;;;;;;7.65;87.35;98909.43;1729197;81;21168;-75
2020/12/25 10:21:18;;;;;;;12.70;9.80;;;;;;;7.60;87.84;98905.25;1731846;81;21165;-77
2020/12/25 10:23:45;;;;;;;14.63;10.13;;;;;;;7.72;87.31;98911.44;1732288;81;21165;-75
2020/12/25 10:26:13;;;;;;;15.17;11.20;;;;;;;7.84;87.07;98924.47;1734506;81;21159;-75
2020/12/25 10:28:41;;;;;;;14.50;10.90;;;;;;;8.06;86.54;98923.11;1732248;81;21275;-76
2020/12/25 10:31:09;;;;;;;16.53;11.30;;;;;;;8.47;85.16;98915.32;1726471;81;21224;-76
2020/12/25 10:33:39;;;;;;;16.50;11.63;;;;;;;8.62;82.86;98909.35;1728974;81;21161;-76
2020/12/25 10:36:08;;;;;;;21.25;15.08;;;;;;;8.69;82.56;98913.91;1727836;81;21117;-76
2020/12/25 10:38:36;;;;;;;22.03;15.03;;;;;;;8.88;82.46;98919.00;1738228;81;21118;-77
2020/12/25 10:41:06;;;;;;;19.03;14.00;;;;;;;9.20;80.82;98910.02;1733409;81;21169;-77
2020/12/25 10:43:34;;;;;;;24.40;15.60;;;;;;;9.22;79.86;98917.25;1726310;81;21126;-76
2020/12/25 10:46:04;;;;;;;18.57;13.17;;;;;;;9.13;80.27;98928.24;1708268;82;21079;-79
2020/12/25 10:48:32;;;;;;;17.03;11.97;;;;;;;9.33;79.96;98934.15;1736249;82;21561;-76
2020/12/25 10:51:05;;;;;;;14.23;10.37;;;;;;;9.55;78.81;98930.53;1721508;82;21585;-73
2020/12/25 10:53:37;;;;;;;15.90;11.13;;;;;;;9.70;77.97;98947.76;1717804;82;21157;-73
2020/12/25 10:56:10;;;;;;;15.17;12.30;;;;;;;9.84;77.71;98932.27;1708940;82;21223;-74
2020/12/25 10:58:39;;;;;;;14.83;11.28;;;;;;;10.05;76.28;98938.97;1709243;82;21126;-75
2020/12/25 11:01:07;;;;;;;17.40;13.47;;;;;;;10.19;75.61;98934.22;1709210;82;21160;-74
2020/12/25 11:03:36;;;;;;;16.07;12.17;;;;;;;10.03;74.91;98936.42;1692655;82;21173;-74
2020/12/25 11:06:04;;;;;;;15.07;9.70;;;;;;;9.77;75.37;98937.19;1714136;82;21137;-74
2020/12/25 11:08:32;;;;;;;16.30;9.53;;;;;;;9.36;75.98;98945.69;1722476;82;21526;-73
2020/12/25 11:10:59;;;;;;;14.53;10.93;;;;;;;9.08;77.22;98946.02;1717308;82;21280;-74
2020/12/25 11:13:27;;;;;;;11.90;8.90;;;;;;;8.86;79.07;98951.74;1721884;82;21211;-73
2020/12/25 11:15:55;;;;;;;13.13;9.23;;;;;;;8.62;79.36;98963.48;1719703;82;21535;-74
2020/12/25 11:18:22;;;;;;;9.90;7.10;;;;;;;8.26;81.01;98956.15;1720372;82;21126;-73
2020/12/25 11:20:53;;;;;;;10.67;7.87;;;;;;;8.02;81.85;98961.86;1717882;82;21125;-74
2020/12/25 11:23:20;;;;;;;11.47;8.13;;;;;;;8.00;82.19;98943.02;1692003;84;21152;-72
2020/12/25 11:25:48;;;;;;;9.83;7.17;;;;;;;8.44;81.64;98960.08;1664935;85;21167;-74
2020/12/25 11:28:16;;;;;;;12.90;8.40;;;;;;;9.03;78.28;98965.50;1663746;85;21170;-74
2020/12/25 11:30:43;;;;;;;11.60;7.77;;;;;;;9.74;76.60;98960.52;1667326;85;21100;-75
2020/12/25 11:33:11;;;;;;;14.57;8.63;;;;;;;10.07;73.43;98950.97;1678225;85;21139;-74